Time;durP1;ratioP1;P1;durP2;ratioP2;P2;SDS_P1;SDS_P2;PMS_P1;PMS_P2;Temp;Humidity;BMP_temperature;BMP_pressure;BME280_temperature;BME280_humidity;BME280_pressure;Samples;Min_cycle;Max_cycle;Signal;HPM_P1;HPM_P2
2023/05/04 00:01:30;;;;;;;6.20;5.00;;;;;;;;;;5064493;28;20484;-80
2023/05/04 00:03:57;;;;;;;9.43;4.97;;;;;;;;;;5071516;28;20448;-80
2023/05/04 00:06:23;;;;;;;7.60;4.93;;;;;;;;;;5063383;28;21003;-80
2023/05/04 00:08:50;;;;;;;8.07;5.40;;;;;;;;;;5064709;28;20593;-81
2023/05/04 00:11:16;;;;;;;9.90;5.00;;;;;;;;;;5063054;28;20549;-80
2023/05/04 00:13:42;;;;;;;8.40;5.10;;;;;;;;;;5063883;28;20496;-80
2023/05/04 00:16:09;;;;;;;9.40;5.57;;;;;;;;;;5068361;28;20516;-80
2023/05/04 00:18:37;;;;;;;5.80;4.90;;;;;;;;;;5065092;28;20492;-79
2023/05/04 00:21:03;;;;;;;9.40;4.83;;;;;;;;;;5063228;28;20919;-80
2023/05/04 00:23:30;;;;;;;6.50;5.20;;;;;;;;;;5063945;28;20485;-79
2023/05/04 00:25:58;;;;;;;11.67;5.30;;;;;;;;;;5064363;28;20481;-79
2023/05/04 00:28:24;;;;;;;5.10;4.60;;;;;;;;;;5070509;28;20514;-80
2023/05/04 00:30:52;;;;;;;6.63;5.10;;;;;;;;;;5064057;28;20472;-80
2023/05/04 00:33:19;;;;;;;8.43;5.00;;;;;;;;;;5066115;28;20495;-79
2023/05/04 00:35:46;;;;;;;7.27;4.40;;;;;;;;;;5060733;28;21004;-78
2023/05/04 00:38:15;;;;;;;7.30;5.03;;;;;;;;;;5071450;28;20484;-77
2023/05/04 00:40:41;;;;;;;6.40;4.80;;;;;;;;;;5063368;28;20472;-78
2023/05/04 00:43:08;;;;;;;6.80;4.90;;;;;;;;;;5062828;28;20955;-78
2023/05/04 00:45:34;;;;;;;9.90;4.90;;;;;;;;;;5063111;28;20477;-78
2023/05/04 00:48:01;;;;;;;5.30;4.30;;;;;;;;;;5063343;28;20536;-79
2023/05/04 00:50:28;;;;;;;7.37;4.87;;;;;;;;;;5073241;28;20484;-78
2023/05/04 00:52:58;;;;;;;6.30;5.50;;;;;;;;;;5065254;28;20903;-78
2023/05/04 00:55:24;;;;;;;8.57;5.30;;;;;;;;;;5056791;28;20449;-79
2023/05/04 00:57:52;;;;;;;7.00;4.73;;;;;;;;;;5066316;28;20456;-79
2023/05/04 01:00:18;;;;;;;5.43;4.93;;;;;;;;;;5066006;28;20486;-78
2023/05/04 01:02:45;;;;;;;7.10;5.13;;;;;;;;;;5064998;28;20503;-78
2023/05/04 01:05:12;;;;;;;5.17;4.67;;;;;;;;;;5072593;28;20456;-79
2023/05/04 01:07:41;;;;;;;5.80;4.57;;;;;;;;;;5063074;28;20505;-78
2023/05/04 01:10:11;;;;;;;6.77;4.57;;;;;;;;;;5068771;28;20449;-79
2023/05/04 01:12:38;;;;;;;6.83;5.70;;;;;;;;;;5062996;28;20514;-79
2023/05/04 01:15:05;;;;;;;6.10;5.23;;;;;;;;;;5061082;28;20536;-78
2023/05/04 01:17:32;;;;;;;8.20;6.17;;;;;;;;;;5067511;28;20469;-79
2023/05/04 01:19:58;;;;;;;6.83;5.47;;;;;;;;;;5064208;28;20891;-79
2023/05/04 01:22:26;;;;;;;7.50;5.90;;;;;;;;;;5062490;28;20558;-79
2023/05/04 01:24:53;;;;;;;7.23;5.63;;;;;;;;;;5072009;28;20476;-79
2023/05/04 01:27:22;;;;;;;8.27;5.70;;;;;;;;;;5076512;28;20476;-79
2023/05/04 01:29:51;;;;;;;7.67;6.23;;;;;;;;;;5066431;28;20467;-79
2023/05/04 01:32:19;;;;;;;8.10;5.67;;;;;;;;;;5061980;28;20521;-79
2023/05/04 01:34:45;;;;;;;8.63;6.10;;;;;;;;;;5062948;28;20452;-79
2023/05/04 01:37:11;;;;;;;6.87;5.07;;;;;;;;;;5063986;28;20535;-79
2023/05/04 01:39:39;;;;;;;9.20;7.00;;;;;;;;;;5063090;28;20445;-79
2023/05/04 01:42:06;;;;;;;8.57;6.70;;;;;;;;;;5061642;28;20481;-78
2023/05/04 01:44:33;;;;;;;17.67;6.57;;;;;;;;;;5070526;28;20497;-79
2023/05/04 01:46:59;;;;;;;8.37;6.20;;;;;;;;;;5066966;28;20504;-80
2023/05/04 01:49:25;;;;;;;12.80;7.60;;;;;;;;;;5061394;28;20508;-79
2023/05/04 01:51:52;;;;;;;9.20;6.50;;;;;;;;;;5063024;28;20509;-78
2023/05/04 01:54:18;;;;;;;6.93;6.23;;;;;;;;;;5064743;28;20484;-79
2023/05/04 01:56:46;;;;;;;7.03;5.50;;;;;;;;;;5067012;28;20584;-79
2023/05/04 01:59:12;;;;;;;8.83;6.17;;;;;;;;;;5070584;28;20461;-78
2023/05/04 02:01:40;;;;;;;7.20;6.10;;;;;;;;;;5062915;28;20507;-78
2023/05/04 02:04:06;;;;;;;12.00;7.60;;;;;;;;;;5062242;28;20894;-78
2023/05/04 02:06:33;;;;;;;10.80;7.03;;;;;;;;;;5066138;28;20475;-79
2023/05/04 02:08:59;;;;;;;9.90;6.10;;;;;;;;;;5065206;28;20603;-79
2023/05/04 02:11:26;;;;;;;8.43;6.40;;;;;;;;;;5060620;28;20538;-79
2023/05/04 02:13:54;;;;;;;7.37;5.97;;;;;;;;;;5062309;28;20556;-79
2023/05/04 02:16:20;;;;;;;7.87;7.07;;;;;;;;;;5061194;28;20499;-78
2023/05/04 02:18:47;;;;;;;6.70;5.67;;;;;;;;;;5062326;28;20476;-78
2023/05/04 02:21:13;;;;;;;7.50;6.70;;;;;;;;;;5064230;28;20533;-78
2023/05/04 02:23:40;;;;;;;10.50;6.10;;;;;;;;;;5066395;28;20526;-78
2023/05/04 02:26:06;;;;;;;8.30;6.23;;;;;;;;;;5061313;28;20496;-77
2023/05/04 02:28:32;;;;;;;8.80;5.30;;;;;;;;;;5065554;28;20563;-77
2023/05/04 02:31:00;;;;;;;8.70;6.23;;;;;;;;;;5061067;28;20503;-78
2023/05/04 02:33:27;;;;;;;8.93;6.30;;;;;;;;;;5061865;28;20496;-78
2023/05/04 02:35:53;;;;;;;12.17;6.97;;;;;;;;;;5060459;28;20469;-80
2023/05/04 02:38:19;;;;;;;7.00;5.80;;;;;;;;;;5063640;28;20464;-79
2023/05/04 02:40:46;;;;;;;9.47;6.60;;;;;;;;;;5061248;28;20472;-79
2023/05/04 02:43:12;;;;;;;9.67;6.83;;;;;;;;;;5062947;28;20576;-79
2023/05/04 02:45:39;;;;;;;9.27;6.27;;;;;;;;;;5061436;28;20558;-78
2023/05/04 02:48:06;;;;;;;9.30;6.43;;;;;;;;;;5063282;28;20496;-79
2023/05/04 02:50:33;;;;;;;6.07;5.30;;;;;;;;;;5061960;28;20468;-79
2023/05/04 02:52:59;;;;;;;9.83;6.13;;;;;;;;;;5060918;28;20497;-74
2023/05/04 02:55:26;;;;;;;7.20;6.10;;;;;;;;;;5060659;28;20456;-79
2023/05/04 02:57:52;;;;;;;8.60;6.10;;;;;;;;;;5069809;28;20545;-79
2023/05/04 03:00:19;;;;;;;8.83;6.87;;;;;;;;;;5062619;28;20899;-79
2023/05/04 03:02:45;;;;;;;9.10;6.40;;;;;;;;;;5064943;28;20453;-78
2023/05/04 03:05:13;;;;;;;8.73;5.60;;;;;;;;;;5060838;28;20471;-77
2023/05/04 03:07:40;;;;;;;9.23;6.80;;;;;;;;;;5062396;28;21070;-80
2023/05/04 03:10:08;;;;;;;10.57;5.93;;;;;;;;;;5064708;28;20448;-80
2023/05/04 03:12:34;;;;;;;7.47;6.20;;;;;;;;;;5064125;28;20465;-80
2023/05/04 03:15:00;;;;;;;9.03;6.37;;;;;;;;;;5065627;28;20491;-80
2023/05/04 03:17:27;;;;;;;8.90;5.70;;;;;;;;;;5068033;28;20496;-78
2023/05/04 03:19:53;;;;;;;8.70;6.47;;;;;;;;;;5070924;28;20508;-79
2023/05/04 03:22:21;;;;;;;9.93;6.23;;;;;;;;;;5070645;28;20492;-79
2023/05/04 03:24:47;;;;;;;6.60;5.97;;;;;;;;;;5068721;28;20455;-79
2023/05/04 03:27:14;;;;;;;11.37;6.40;;;;;;;;;;5059178;28;20483;-79
2023/05/04 03:29:40;;;;;;;8.73;5.93;;;;;;;;;;5070605;28;20507;-79
2023/05/04 03:32:07;;;;;;;8.87;6.30;;;;;;;;;;5064264;28;20535;-79
2023/05/04 03:34:33;;;;;;;7.70;5.70;;;;;;;;;;5068890;28;20480;-78
2023/05/04 03:36:59;;;;;;;7.87;6.23;;;;;;;;;;5064228;28;20511;-78
2023/05/04 03:39:27;;;;;;;7.10;6.30;;;;;;;;;;5065556;28;20452;-79
2023/05/04 03:41:54;;;;;;;10.10;6.10;;;;;;;;;;5063630;28;20516;-79
2023/05/04 03:44:20;;;;;;;12.10;6.80;;;;;;;;;;5066315;28;20469;-79
2023/05/04 03:46:46;;;;;;;9.23;5.47;;;;;;;;;;5064260;28;20571;-80
2023/05/04 03:49:13;;;;;;;8.00;5.57;;;;;;;;;;5065168;28;20503;-80
2023/05/04 03:51:40;;;;;;;9.70;5.70;;;;;;;;;;5068215;28;20482;-78
2023/05/04 03:54:06;;;;;;;6.80;5.20;;;;;;;;;;5067691;28;20484;-78
2023/05/04 03:56:34;;;;;;;10.10;6.43;;;;;;;;;;5068716;28;20556;-78
2023/05/04 03:59:00;;;;;;;7.00;5.20;;;;;;;;;;5065720;28;20464;-79
2023/05/04 04:01:27;;;;;;;6.63;5.83;;;;;;;;;;5063627;28;20504;-79
2023/05/04 04:03:53;;;;;;;7.77;6.13;;;;;;;;;;5064694;28;20532;-79
2023/05/04 04:06:20;;;;;;;9.30;5.77;;;;;;;;;;5069643;28;20499;-79
2023/05/04 04:08:46;;;;;;;6.87;5.90;;;;;;;;;;5071588;28;20496;-78
2023/05/04 04:11:13;;;;;;;7.37;5.67;;;;;;;;;;5063850;28;20554;-78
2023/05/04 04:13:40;;;;;;;9.23;5.50;;;;;;;;;;5065637;28;20516;-78
2023/05/04 04:16:07;;;;;;;8.63;6.33;;;;;;;;;;5066703;28;20487;-77
2023/05/04 04:18:34;;;;;;;6.47;5.77;;;;;;;;;;5064023;28;20481;-78
2023/05/04 04:21:00;;;;;;;8.40;6.03;;;;;;;;;;5063099;28;20519;-79
2023/05/04 04:23:27;;;;;;;12.30;5.10;;;;;;;;;;5073490;28;20505;-79
2023/05/04 04:25:53;;;;;;;9.63;5.70;;;;;;;;;;5067444;28;20511;-79
2023/05/04 04:28:20;;;;;;;6.20;5.50;;;;;;;;;;5062672;28;20489;-80
2023/05/04 04:30:48;;;;;;;6.03;5.47;;;;;;;;;;5066542;28;20479;-78
2023/05/04 04:33:15;;;;;;;8.50;5.67;;;;;;;;;;5070221;28;20459;-78
2023/05/04 04:35:42;;;;;;;9.20;5.87;;;;;;;;;;5067668;28;20494;-79
2023/05/04 04:38:08;;;;;;;6.33;5.33;;;;;;;;;;5065080;28;20477;-79
2023/05/04 04:40:35;;;;;;;8.77;5.20;;;;;;;;;;5065141;28;20495;-79
2023/05/04 04:43:01;;;;;;;7.70;5.23;;;;;;;;;;5063077;28;20471;-79
2023/05/04 04:45:28;;;;;;;7.37;5.60;;;;;;;;;;5062364;28;20491;-77
2023/05/04 04:47:56;;;;;;;6.70;5.20;;;;;;;;;;5063984;28;20456;-83
2023/05/04 04:50:22;;;;;;;6.60;5.30;;;;;;;;;;5071263;28;20461;-83
2023/05/04 04:52:49;;;;;;;6.50;5.50;;;;;;;;;;5064007;28;20497;-84
2023/05/04 04:55:16;;;;;;;10.13;7.00;;;;;;;;;;5063047;28;20457;-83
2023/05/04 04:57:43;;;;;;;7.37;6.33;;;;;;;;;;5070582;28;20869;-83
2023/05/04 05:00:10;;;;;;;7.47;5.90;;;;;;;;;;5063376;28;20513;-80
2023/05/04 05:02:36;;;;;;;5.93;5.20;;;;;;;;;;5061150;28;20498;-79
2023/05/04 05:05:04;;;;;;;6.70;6.00;;;;;;;;;;5063875;28;20480;-81
2023/05/04 05:07:31;;;;;;;9.80;6.80;;;;;;;;;;5062357;28;20563;-80
2023/05/04 05:09:58;;;;;;;8.30;6.80;;;;;;;;;;5063865;28;20499;-78
2023/05/04 05:12:24;;;;;;;11.00;6.77;;;;;;;;;;5062066;28;20480;-80
2023/05/04 05:14:51;;;;;;;6.57;5.87;;;;;;;;;;5070725;28;20479;-80
2023/05/04 05:17:17;;;;;;;7.47;6.00;;;;;;;;;;5064429;28;20508;-79
2023/05/04 05:19:44;;;;;;;7.90;5.50;;;;;;;;;;5066013;28;20471;-80
2023/05/04 05:22:12;;;;;;;6.50;5.13;;;;;;;;;;5061556;28;20544;-80
2023/05/04 05:24:38;;;;;;;10.00;5.83;;;;;;;;;;5061516;28;20460;-80
2023/05/04 05:27:04;;;;;;;8.83;6.37;;;;;;;;;;5060565;28;20500;-80
2023/05/04 05:29:31;;;;;;;7.13;5.97;;;;;;;;;;5055326;28;20481;-80
2023/05/04 05:31:57;;;;;;;6.17;5.57;;;;;;;;;;5060450;28;20523;-80
2023/05/04 05:34:24;;;;;;;6.87;5.70;;;;;;;;;;5062240;28;20472;-80
2023/05/04 05:36:50;;;;;;;6.03;5.43;;;;;;;;;;5065654;28;20488;-80
2023/05/04 05:39:18;;;;;;;6.73;5.80;;;;;;;;;;5062054;28;20549;-80
2023/05/04 05:41:44;;;;;;;9.20;5.67;;;;;;;;;;5059851;28;21163;-80
2023/05/04 05:44:11;;;;;;;9.17;6.30;;;;;;;;;;5064634;28;20582;-80
2023/05/04 05:46:37;;;;;;;6.07;5.47;;;;;;;;;;5062875;28;20504;-81
2023/05/04 05:49:06;;;;;;;7.63;6.60;;;;;;;;;;5068632;28;20591;-81
2023/05/04 05:51:32;;;;;;;12.70;5.80;;;;;;;;;;5061269;28;20480;-80
2023/05/04 05:53:59;;;;;;;9.70;6.53;;;;;;;;;;5061434;28;20487;-78
2023/05/04 05:56:26;;;;;;;7.33;5.97;;;;;;;;;;5062691;28;20484;-80
2023/05/04 05:58:53;;;;;;;8.70;6.17;;;;;;;;;;5061679;28;21055;-79
2023/05/04 06:01:19;;;;;;;6.40;5.80;;;;;;;;;;5061545;28;20493;-80
2023/05/04 06:03:46;;;;;;;7.20;5.50;;;;;;;;;;5063923;28;20479;-80
2023/05/04 06:06:12;;;;;;;13.13;5.90;;;;;;;;;;5063458;28;20496;-80
2023/05/04 06:08:38;;;;;;;10.00;6.70;;;;;;;;;;5061593;28;20599;-80
2023/05/04 06:11:05;;;;;;;10.27;6.10;;;;;;;;;;5060280;28;20511;-80
2023/05/04 06:13:33;;;;;;;7.30;5.20;;;;;;;;;;5061502;28;20468;-79
2023/05/04 06:15:59;;;;;;;11.30;6.10;;;;;;;;;;5060836;28;21038;-79
2023/05/04 06:18:26;;;;;;;10.83;6.70;;;;;;;;;;5061457;28;20981;-80
2023/05/04 06:20:57;;;;;;;11.47;5.73;;;;;;;;;;5061090;28;20484;-80
2023/05/04 06:23:24;;;;;;;9.23;5.90;;;;;;;;;;5063421;28;20491;-79
2023/05/04 06:25:51;;;;;;;7.07;6.20;;;;;;;;;;5065244;28;20496;-79
2023/05/04 06:28:17;;;;;;;11.93;6.10;;;;;;;;;;5061000;28;20457;-81
2023/05/04 06:30:45;;;;;;;9.47;6.50;;;;;;;;;;5061697;28;20473;-80
2023/05/04 06:33:11;;;;;;;7.63;6.83;;;;;;;;;;5061021;28;20544;-80
2023/05/04 06:35:38;;;;;;;6.67;6.07;;;;;;;;;;5061364;28;20464;-80
2023/05/04 06:38:05;;;;;;;13.20;7.37;;;;;;;;;;5056938;28;20457;-80
2023/05/04 06:40:31;;;;;;;7.27;6.10;;;;;;;;;;5067658;28;20529;-79
2023/05/04 06:42:57;;;;;;;10.33;6.57;;;;;;;;;;5064927;28;20492;-79
2023/05/04 06:45:24;;;;;;;9.83;7.23;;;;;;;;;;5066387;28;20457;-81
2023/05/04 06:47:52;;;;;;;12.33;7.37;;;;;;;;;;5065107;28;20480;-81
2023/05/04 06:50:18;;;;;;;8.33;5.80;;;;;;;;;;5064854;28;20503;-79
2023/05/04 06:52:45;;;;;;;10.83;6.13;;;;;;;;;;5065338;28;20483;-80
2023/05/04 06:55:11;;;;;;;10.87;6.00;;;;;;;;;;5065267;28;20480;-79
2023/05/04 06:57:38;;;;;;;7.90;6.50;;;;;;;;;;5065027;28;20455;-81
2023/05/04 07:00:05;;;;;;;7.30;6.03;;;;;;;;;;5063838;28;21044;-80
2023/05/04 07:02:31;;;;;;;7.83;5.53;;;;;;;;;;5071153;28;20544;-80
2023/05/04 07:05:01;;;;;;;7.80;6.30;;;;;;;;;;5065538;28;20483;-80
2023/05/04 07:07:27;;;;;;;8.50;5.90;;;;;;;;;;5064412;28;20488;-81
2023/05/04 07:09:53;;;;;;;12.90;7.33;;;;;;;;;;5069887;28;20509;-79
2023/05/04 07:12:20;;;;;;;8.27;6.20;;;;;;;;;;5065873;28;20515;-80
2023/05/04 07:14:46;;;;;;;8.17;6.20;;;;;;;;;;5071738;28;20448;-80
2023/05/04 07:17:13;;;;;;;8.00;5.83;;;;;;;;;;5063274;28;20489;-79
2023/05/04 07:19:40;;;;;;;6.83;5.83;;;;;;;;;;5065421;28;20483;-79
2023/05/04 07:22:08;;;;;;;9.30;6.63;;;;;;;;;;5064411;28;20481;-80
2023/05/04 07:24:34;;;;;;;6.20;5.37;;;;;;;;;;5057346;28;20480;-80
2023/05/04 07:27:01;;;;;;;10.20;5.73;;;;;;;;;;5063011;28;20504;-81
2023/05/04 07:29:27;;;;;;;10.37;6.13;;;;;;;;;;5060682;28;20486;-80
2023/05/04 07:31:54;;;;;;;6.93;5.90;;;;;;;;;;5063600;28;21054;-80
2023/05/04 07:34:20;;;;;;;8.30;6.90;;;;;;;;;;5072142;28;20471;-80
2023/05/04 07:36:47;;;;;;;9.40;5.10;;;;;;;;;;5063766;28;20500;-79
2023/05/04 07:39:15;;;;;;;10.43;7.07;;;;;;;;;;5064505;28;20456;-80
2023/05/04 07:41:42;;;;;;;8.07;5.30;;;;;;;;;;5059825;28;20473;-80
2023/05/04 07:44:10;;;;;;;9.20;6.30;;;;;;;;;;5065901;28;20456;-81
2023/05/04 07:46:36;;;;;;;10.13;5.97;;;;;;;;;;5063286;28;20480;-79
2023/05/04 07:49:03;;;;;;;7.90;5.70;;;;;;;;;;5064599;28;20515;-80
2023/05/04 07:51:29;;;;;;;9.00;6.00;;;;;;;;;;5063904;28;20906;-80
2023/05/04 07:53:55;;;;;;;8.93;5.67;;;;;;;;;;5063939;28;20461;-80
2023/05/04 07:56:23;;;;;;;10.70;5.87;;;;;;;;;;5067053;28;20558;-80
2023/05/04 07:58:50;;;;;;;7.40;5.83;;;;;;;;;;5068224;28;20460;-80
2023/05/04 08:01:17;;;;;;;9.83;5.87;;;;;;;;;;5063765;28;21210;-76
2023/05/04 08:03:44;;;;;;;9.57;5.10;;;;;;;;;;5065770;28;20989;-80
2023/05/04 08:06:10;;;;;;;7.37;5.20;;;;;;;;;;5063436;28;20476;-80
2023/05/04 08:08:37;;;;;;;6.20;5.10;;;;;;;;;;5064293;28;20525;-80
2023/05/04 08:11:03;;;;;;;7.27;6.10;;;;;;;;;;5064503;28;20507;-80
2023/05/04 08:13:31;;;;;;;5.80;5.20;;;;;;;;;;5062980;28;20448;-80
2023/05/04 08:16:00;;;;;;;6.20;5.40;;;;;;;;;;5065526;28;20516;-81
2023/05/04 08:18:26;;;;;;;5.93;5.30;;;;;;;;;;5059379;28;21009;-80
2023/05/04 08:20:54;;;;;;;7.03;5.30;;;;;;;;;;5064236;28;20477;-80
2023/05/04 08:23:21;;;;;;;6.57;5.47;;;;;;;;;;5066491;28;20460;-80
2023/05/04 08:25:47;;;;;;;8.13;6.40;;;;;;;;;;5063253;28;20475;-81
2023/05/04 08:28:14;;;;;;;7.40;5.33;;;;;;;;;;5063354;28;20457;-80
2023/05/04 08:30:42;;;;;;;9.20;5.70;;;;;;;;;;5068122;28;20500;-80
2023/05/04 08:33:11;;;;;;;7.00;5.53;;;;;;;;;;5063705;28;20469;-79
2023/05/04 08:35:37;;;;;;;7.07;5.60;;;;;;;;;;5062968;28;20480;-81
2023/05/04 08:38:04;;;;;;;10.07;5.60;;;;;;;;;;5068126;28;20452;-81
2023/05/04 08:40:30;;;;;;;10.23;5.60;;;;;;;;;;5067329;28;20511;-79
2023/05/04 08:42:57;;;;;;;7.50;5.87;;;;;;;;;;5062651;28;20460;-81
2023/05/04 08:45:24;;;;;;;6.50;5.77;;;;;;;;;;5062232;28;20456;-80
2023/05/04 08:47:52;;;;;;;12.20;6.23;;;;;;;;;;5063433;28;20460;-81
2023/05/04 08:50:19;;;;;;;10.17;6.77;;;;;;;;;;5071000;28;20476;-80
2023/05/04 08:52:46;;;;;;;11.90;5.80;;;;;;;;;;5064123;28;20442;-81
2023/05/04 08:55:15;;;;;;;9.73;5.83;;;;;;;;;;5052964;28;20452;-79
2023/05/04 08:57:42;;;;;;;9.80;5.97;;;;;;;;;;5076298;28;20461;-81
2023/05/04 09:00:11;;;;;;;11.87;6.50;;;;;;;;;;5061953;28;20484;-79
2023/05/04 09:02:37;;;;;;;6.57;4.70;;;;;;;;;;5062459;28;20488;-80
2023/05/04 09:05:06;;;;;;;13.90;6.50;;;;;;;;;;5066823;28;20461;-80
2023/05/04 09:07:33;;;;;;;8.00;6.20;;;;;;;;;;5066419;28;20491;-81
2023/05/04 09:10:00;;;;;;;6.93;6.00;;;;;;;;;;5064972;28;20481;-81
2023/05/04 09:12:26;;;;;;;8.43;5.83;;;;;;;;;;5062438;28;20476;-81
2023/05/04 09:14:53;;;;;;;12.30;5.63;;;;;;;;;;5069656;28;20510;-81
2023/05/04 09:17:24;;;;;;;7.40;5.60;;;;;;;;;;5061788;28;20473;-81
2023/05/04 09:19:57;;;;;;;7.80;6.50;;;;;;;;;;5050842;28;21108;-81
2023/05/04 09:22:25;;;;;;;9.30;5.97;;;;;;;;;;5061089;28;20517;-80
2023/05/04 09:24:51;;;;;;;7.70;6.07;;;;;;;;;;5062451;28;20453;-79
2023/05/04 09:27:18;;;;;;;10.03;5.73;;;;;;;;;;5059294;28;20516;-79
2023/05/04 09:29:44;;;;;;;8.30;5.90;;;;;;;;;;5062209;28;20488;-79
2023/05/04 09:32:12;;;;;;;6.90;5.50;;;;;;;;;;5068926;28;20515;-79
2023/05/04 09:34:46;;;;;;;12.77;6.27;;;;;;;;;;5062594;28;20461;-78
2023/05/04 09:37:13;;;;;;;21.63;6.87;;;;;;;;;;5060604;28;20500;-80
2023/05/04 09:39:50;;;;;;;7.67;6.07;;;;;;;;;;5069059;28;20445;-80
2023/05/04 09:42:17;;;;;;;6.53;5.93;;;;;;;;;;5061284;28;20863;-80
2023/05/04 09:44:44;;;;;;;8.53;5.67;;;;;;;;;;5063415;28;21136;-79
2023/05/04 09:47:11;;;;;;;10.50;6.33;;;;;;;;;;5061486;28;20473;-81
2023/05/04 09:49:38;;;;;;;12.70;6.13;;;;;;;;;;5068200;28;20580;-77
2023/05/04 09:52:05;;;;;;;7.47;6.70;;;;;;;;;;5063738;28;20525;-80
2023/05/04 09:54:33;;;;;;;7.40;6.00;;;;;;;;;;5065494;28;20544;-78
2023/05/04 09:57:05;;;;;;;7.20;5.87;;;;;;;;;;5069528;28;20472;-79
2023/05/04 09:59:32;;;;;;;8.23;6.20;;;;;;;;;;5058695;28;20812;-82
2023/05/04 10:01:59;;;;;;;6.70;5.70;;;;;;;;;;5060985;28;20476;-79
2023/05/04 10:04:25;;;;;;;9.30;6.00;;;;;;;;;;5063792;28;20465;-79
2023/05/04 10:06:53;;;;;;;9.37;6.60;;;;;;;;;;5068448;28;20476;-83
2023/05/04 10:09:21;;;;;;;8.50;6.30;;;;;;;;;;5063008;28;20568;-78
2023/05/04 10:11:48;;;;;;;9.30;6.30;;;;;;;;;;5060514;28;20533;-86
2023/05/04 10:14:15;;;;;;;11.50;6.27;;;;;;;;;;5062210;28;20479;-85
2023/05/04 10:16:46;;;;;;;12.50;6.43;;;;;;;;;;5069689;28;20465;-82
2023/05/04 10:19:30;;;;;;;13.60;6.37;;;;;;;;;;5061958;28;20481;-80
2023/05/04 10:22:02;;;;;;;6.23;5.60;;;;;;;;;;5052461;28;20515;-81
2023/05/04 10:24:37;;;;;;;7.90;6.63;;;;;;;;;;5061141;28;20507;-82
2023/05/04 10:27:13;;;;;;;9.33;6.90;;;;;;;;;;5060832;28;20543;-80
2023/05/04 10:29:41;;;;;;;9.17;6.43;;;;;;;;;;5059096;28;20479;-81
2023/05/04 10:32:17;;;;;;;7.87;5.80;;;;;;;;;;5065697;28;20975;-82
2023/05/04 10:34:44;;;;;;;7.23;5.50;;;;;;;;;;5062361;28;20461;-82
2023/05/04 10:37:16;;;;;;;10.83;7.07;;;;;;;;;;5060036;28;21251;-82
2023/05/04 10:39:50;;;;;;;7.23;6.30;;;;;;;;;;5071640;28;20445;-82
2023/05/04 10:42:16;;;;;;;6.90;6.13;;;;;;;;;;5059036;28;20473;-82
2023/05/04 10:44:51;;;;;;;10.73;5.93;;;;;;;;;;5060947;28;20460;-83
2023/05/04 10:47:27;;;;;;;7.30;6.60;;;;;;;;;;5063474;28;20484;-82
2023/05/04 10:50:00;;;;;;;6.50;5.90;;;;;;;;;;5061613;28;20511;-82
2023/05/04 10:52:27;;;;;;;8.03;6.60;;;;;;;;;;5060309;28;20996;-83
2023/05/04 10:54:58;;;;;;;9.93;6.37;;;;;;;;;;5061033;28;20809;-82
2023/05/04 10:57:27;;;;;;;11.90;7.07;;;;;;;;;;5060481;28;20564;-82
2023/05/04 10:59:58;;;;;;;7.50;6.50;;;;;;;;;;5059901;28;20463;-82
2023/05/04 11:02:25;;;;;;;6.00;5.37;;;;;;;;;;5059779;28;20485;-81
2023/05/04 11:05:02;;;;;;;7.60;5.93;;;;;;;;;;5062648;28;20836;-82
2023/05/04 11:07:36;;;;;;;7.00;5.50;;;;;;;;;;5064584;28;20494;-81
2023/05/04 11:10:03;;;;;;;7.10;5.43;;;;;;;;;;5061892;28;20492;-81
2023/05/04 11:12:30;;;;;;;7.00;5.43;;;;;;;;;;5054607;28;20469;-80
2023/05/04 11:15:08;;;;;;;8.53;6.10;;;;;;;;;;5061136;28;20465;-81
2023/05/04 11:17:34;;;;;;;8.47;6.30;;;;;;;;;;5060262;28;21023;-81
2023/05/04 11:20:01;;;;;;;6.17;5.40;;;;;;;;;;5072836;28;20453;-81
2023/05/04 11:22:28;;;;;;;6.57;4.97;;;;;;;;;;5062924;28;20507;-81
2023/05/04 11:24:55;;;;;;;5.30;4.60;;;;;;;;;;5060832;28;20551;-81
2023/05/04 11:27:22;;;;;;;11.43;5.70;;;;;;;;;;5060341;28;20505;-81
2023/05/04 11:29:53;;;;;;;6.33;4.80;;;;;;;;;;5067841;28;20558;-81
2023/05/04 11:32:21;;;;;;;6.20;5.60;;;;;;;;;;5064501;28;20507;-82
2023/05/04 11:34:48;;;;;;;8.27;5.23;;;;;;;;;;5064679;28;20495;-81
2023/05/04 11:37:14;;;;;;;10.10;6.00;;;;;;;;;;5066031;28;21042;-82
2023/05/04 11:39:41;;;;;;;8.37;5.70;;;;;;;;;;5064912;28;20456;-82
2023/05/04 11:42:07;;;;;;;6.60;6.00;;;;;;;;;;5072679;28;20536;-81
2023/05/04 11:44:34;;;;;;;12.73;5.87;;;;;;;;;;5072021;28;20455;-81
2023/05/04 11:47:01;;;;;;;6.37;5.30;;;;;;;;;;5062645;28;20487;-81
2023/05/04 11:49:31;;;;;;;9.90;6.50;;;;;;;;;;5070003;28;20479;-81
2023/05/04 11:52:05;;;;;;;6.27;5.43;;;;;;;;;;5063164;28;20491;-82
2023/05/04 11:54:32;;;;;;;9.00;6.57;;;;;;;;;;5062193;28;20470;-81
2023/05/04 11:57:00;;;;;;;11.43;5.90;;;;;;;;;;5060730;28;20534;-81
2023/05/04 11:59:26;;;;;;;5.43;4.93;;;;;;;;;;5064373;28;20461;-81
2023/05/04 12:01:52;;;;;;;7.10;6.13;;;;;;;;;;5063743;28;21026;-81
2023/05/04 12:04:19;;;;;;;7.50;5.47;;;;;;;;;;5063881;28;20468;-82
2023/05/04 12:06:47;;;;;;;6.47;5.20;;;;;;;;;;5066709;28;20511;-81
2023/05/04 12:09:13;;;;;;;4.87;4.37;;;;;;;;;;5064243;28;20488;-81
2023/05/04 12:11:40;;;;;;;7.10;6.27;;;;;;;;;;5064073;28;20560;-81
2023/05/04 12:14:08;;;;;;;5.60;5.10;;;;;;;;;;5073611;28;20968;-80
2023/05/04 12:16:35;;;;;;;6.67;6.00;;;;;;;;;;5065422;28;20489;-81
2023/05/04 12:19:02;;;;;;;9.33;5.43;;;;;;;;;;5066680;28;20461;-81
2023/05/04 12:21:29;;;;;;;7.07;5.57;;;;;;;;;;5063561;28;20484;-80
2023/05/04 12:23:57;;;;;;;7.93;5.47;;;;;;;;;;5066002;28;20453;-81
2023/05/04 12:26:24;;;;;;;6.70;5.30;;;;;;;;;;5063356;28;20512;-80
2023/05/04 12:28:50;;;;;;;13.27;5.87;;;;;;;;;;5062787;28;21142;-81
2023/05/04 12:31:17;;;;;;;8.17;5.20;;;;;;;;;;5049889;28;21024;-81
2023/05/04 12:33:44;;;;;;;5.50;5.00;;;;;;;;;;5068190;28;20464;-81
2023/05/04 12:36:10;;;;;;;8.07;5.10;;;;;;;;;;5071212;28;20705;-80
2023/05/04 12:38:37;;;;;;;7.17;5.87;;;;;;;;;;5062869;28;20445;-81
2023/05/04 12:41:06;;;;;;;6.13;4.80;;;;;;;;;;5074019;28;20487;-81
2023/05/04 12:43:32;;;;;;;6.43;5.37;;;;;;;;;;5062208;28;20460;-81
2023/05/04 12:45:59;;;;;;;4.93;4.43;;;;;;;;;;5064022;28;20506;-81
2023/05/04 12:48:27;;;;;;;5.47;4.83;;;;;;;;;;5067305;28;20480;-80
2023/05/04 12:50:53;;;;;;;6.90;4.50;;;;;;;;;;5067481;28;20480;-81
2023/05/04 12:53:21;;;;;;;5.60;5.03;;;;;;;;;;5062770;28;20469;-81
2023/05/04 12:55:47;;;;;;;5.80;5.10;;;;;;;;;;5062642;28;20480;-80
2023/05/04 12:58:15;;;;;;;6.23;5.00;;;;;;;;;;5061874;28;20997;-80
2023/05/04 13:00:42;;;;;;;7.90;5.60;;;;;;;;;;5063709;28;20488;-80
2023/05/04 13:03:10;;;;;;;6.93;4.73;;;;;;;;;;5063636;28;20492;-80
2023/05/04 13:05:37;;;;;;;6.37;4.40;;;;;;;;;;5061364;28;20552;-80
2023/05/04 13:08:03;;;;;;;4.47;4.07;;;;;;;;;;5063941;28;21116;-80
2023/05/04 13:10:30;;;;;;;5.40;4.23;;;;;;;;;;5062317;28;20547;-80
2023/05/04 13:12:56;;;;;;;5.10;3.37;;;;;;;;;;5062200;28;20521;-79
2023/05/04 13:15:24;;;;;;;3.60;3.30;;;;;;;;;;5062229;28;20456;-79
2023/05/04 13:17:52;;;;;;;6.07;4.67;;;;;;;;;;5062834;28;20479;-80
2023/05/04 13:20:19;;;;;;;3.97;3.47;;;;;;;;;;5061472;28;20488;-80
2023/05/04 13:22:46;;;;;;;6.53;4.40;;;;;;;;;;5062719;28;20456;-79
2023/05/04 13:25:12;;;;;;;6.60;4.17;;;;;;;;;;5061841;28;20453;-80
2023/05/04 13:27:38;;;;;;;6.40;4.40;;;;;;;;;;5062008;28;20488;-80
2023/05/04 13:30:06;;;;;;;6.43;4.40;;;;;;;;;;5063768;28;20460;-81
2023/05/04 13:32:34;;;;;;;4.53;4.13;;;;;;;;;;5043199;28;20546;-80
2023/05/04 13:35:01;;;;;;;8.73;4.50;;;;;;;;;;5047229;28;20461;-80
2023/05/04 13:37:27;;;;;;;5.90;4.00;;;;;;;;;;5041318;28;20516;-79
2023/05/04 13:39:53;;;;;;;5.17;3.60;;;;;;;;;;5043002;28;20450;-80
2023/05/04 13:42:20;;;;;;;6.97;4.23;;;;;;;;;;5043687;28;20478;-80
2023/05/04 13:44:47;;;;;;;6.73;4.63;;;;;;;;;;5047231;28;20449;-79
2023/05/04 13:47:15;;;;;;;5.10;4.23;;;;;;;;;;5042449;28;20559;-81
2023/05/04 13:49:43;;;;;;;5.93;3.60;;;;;;;;;;5035793;28;20954;-81
2023/05/04 13:52:09;;;;;;;9.80;3.80;;;;;;;;;;5042617;28;20481;-82
2023/05/04 13:54:36;;;;;;;6.27;4.10;;;;;;;;;;5042718;28;20489;-81
2023/05/04 13:57:03;;;;;;;10.57;4.40;;;;;;;;;;5056599;28;20495;-81
2023/05/04 13:59:29;;;;;;;4.10;3.70;;;;;;;;;;5068815;28;20506;-80
2023/05/04 14:01:56;;;;;;;4.73;3.60;;;;;;;;;;5064467;28;20615;-81
2023/05/04 14:04:23;;;;;;;5.57;3.43;;;;;;;;;;5065274;28;20492;-81
2023/05/04 14:06:51;;;;;;;4.43;3.20;;;;;;;;;;5066998;28;20515;-83
2023/05/04 14:09:18;;;;;;;4.40;3.63;;;;;;;;;;5062981;28;20542;-81
2023/05/04 14:11:46;;;;;;;4.73;3.47;;;;;;;;;;5064327;28;20483;-81
2023/05/04 14:14:12;;;;;;;4.23;3.13;;;;;;;;;;5073277;28;20813;-83
2023/05/04 14:16:39;;;;;;;5.43;3.50;;;;;;;;;;5073183;28;20484;-80
2023/05/04 14:19:05;;;;;;;4.00;3.23;;;;;;;;;;5067736;28;20488;-78
2023/05/04 14:21:32;;;;;;;3.40;3.00;;;;;;;;;;5061314;28;20476;-80
2023/05/04 14:24:00;;;;;;;5.97;3.87;;;;;;;;;;5063871;28;20456;-79
2023/05/04 14:26:26;;;;;;;4.10;3.07;;;;;;;;;;5061877;28;20487;-80
2023/05/04 14:28:53;;;;;;;3.80;2.97;;;;;;;;;;5061294;28;20468;-80
2023/05/04 14:31:19;;;;;;;6.43;3.20;;;;;;;;;;5062856;28;21248;-80
2023/05/04 14:33:46;;;;;;;4.30;3.10;;;;;;;;;;5061248;28;20957;-80
2023/05/04 14:36:12;;;;;;;6.03;3.27;;;;;;;;;;5066501;28;20513;-80
2023/05/04 14:38:39;;;;;;;4.17;3.53;;;;;;;;;;5061293;28;20461;-79
2023/05/04 14:41:07;;;;;;;10.67;2.50;;;;;;;;;;5060244;28;20473;-80